Terminal Aerodrome Forecast
Issued by NWS

Home | Current Version | Previous Version | Text Only | Print | Product List | Glossary On
Versions: 1 2 3 4 5 6 7 8 9 10 11 12 13 14 15 16 17 18 19 20 21 22 23 24 25
427
FTUS43 KLOT 141130
TAFMDW
TAF
KMDW 141130Z 1412/1512 14008KT P6SM OVC120
     FM141500 14013KT 5SM -SN OVC060
     FM141700 14014G18KT 2SM -SN BR OVC015
      TEMPO 1418/1421 1SM -SN BR OVC010
     FM142100 15014G20KT 5SM -SN BR OVC012
      TEMPO 1423/1502 2SM -SN BR OVC008
     FM150200 16012KT 5SM -SN BR OVC008=

USA.gov is the U.S. government's official web portal to all federal, state and local government web resources and services.